createdAt,value
2023-03-26T00:01:58.561Z,66.17
2023-03-26T00:08:57.398Z,66.44
2023-03-26T00:15:41.470Z,66.56
2023-03-26T00:22:34.746Z,66.97
2023-03-26T00:25:16.169Z,66.96
2023-03-26T00:32:15.079Z,66.78
2023-03-26T00:43:22.406Z,65.94
2023-03-26T00:50:16.762Z,65.38
2023-03-26T00:57:08.174Z,65.57
2023-03-26T01:04:28.587Z,66.00
2023-03-26T01:11:19.222Z,66.56
2023-03-26T01:18:23.275Z,66.61
2023-03-26T01:25:14.471Z,67.09
2023-03-26T01:32:21.956Z,67.32
2023-03-26T01:47:47.733Z,68.35
2023-03-26T01:54:43.169Z,68.52
2023-03-26T02:01:47.443Z,68.23
2023-03-26T02:08:49.122Z,68.11
2023-03-26T02:15:35.674Z,67.86
2023-03-26T02:22:22.633Z,68.41
2023-03-26T02:29:12.497Z,68.32
2023-03-26T02:36:11.002Z,68.75
2023-03-26T02:42:53.669Z,69.54
2023-03-26T02:49:55.270Z,69.81
2023-03-26T02:57:01.661Z,70.29
2023-03-26T03:01:14.829Z,69.81
2023-03-26T03:08:18.581Z,70.59
2023-03-26T03:15:30.584Z,72.16
2023-03-26T03:18:57.849Z,72.33
2023-03-26T03:26:04.036Z,72.89
2023-03-26T03:38:03.463Z,74.14
2023-03-26T03:41:12.100Z,74.10
2023-03-26T03:48:03.698Z,74.94
2023-03-26T03:55:04.617Z,75.11
2023-03-26T04:02:03.445Z,71.62
2023-03-26T04:08:49.570Z,71.12
2023-03-26T04:12:21.179Z,71.29
2023-03-26T04:19:27.543Z,70.38
2023-03-26T04:26:10.664Z,70.66
2023-03-26T04:33:28.492Z,70.55
2023-03-26T04:49:31.815Z,68.96
2023-03-26T04:56:36.068Z,69.35
2023-03-26T05:03:45.882Z,71.54
2023-03-26T05:10:36.893Z,75.92
2023-03-26T05:17:31.057Z,76.88
2023-03-26T05:24:27.281Z,77.22
2023-03-26T05:31:10.964Z,78.45
2023-03-26T05:38:04.508Z,77.37
2023-03-26T05:49:07.052Z,77.38
2023-03-26T05:55:58.078Z,75.33
2023-03-26T06:03:04.638Z,66.36
2023-03-26T06:14:48.940Z,70.27
2023-03-26T06:21:47.348Z,66.63
2023-03-26T06:28:53.732Z,61.76
2023-03-26T06:36:15.020Z,59.95
2023-03-26T06:43:10.841Z,58.25
2023-03-26T06:54:47.040Z,56.50
2023-03-26T06:58:04.978Z,57.09
2023-03-26T07:05:13.921Z,55.83
2023-03-26T07:12:28.175Z,55.65
2023-03-26T07:19:28.310Z,54.96
2023-03-26T07:30:57.869Z,55.49
2023-03-26T07:38:25.920Z,56.65
2023-03-26T07:49:49.572Z,56.06
2023-03-26T07:57:04.454Z,53.35
2023-03-26T08:04:26.190Z,52.70
2023-03-26T08:11:54.891Z,53.28
2023-03-26T08:18:48.905Z,52.09
2023-03-26T08:54:25.884Z,51.21
2023-03-26T09:10:29.686Z,51.84
2023-03-26T09:17:43.379Z,50.95
2023-03-26T09:29:24.381Z,49.00
2023-03-26T09:36:35.157Z,50.32
2023-03-26T09:44:04.286Z,50.77
2023-03-26T09:51:39.046Z,50.16
2023-03-26T10:03:36.539Z,46.15
2023-03-26T10:31:37.956Z,48.36
2023-03-26T13:10:00.669Z,36.65
2023-03-26T13:17:06.552Z,35.36
2023-03-26T13:24:22.112Z,36.21
2023-03-26T13:31:24.667Z,36.64
2023-03-26T13:38:23.056Z,37.01
2023-03-26T13:45:49.285Z,35.59
2023-03-26T14:09:38.700Z,34.84
2023-03-26T14:16:40.870Z,33.15
2023-03-26T14:44:49.159Z,35.25
2023-03-26T14:56:48.596Z,34.92
2023-03-26T15:20:56.093Z,36.77
2023-03-26T15:28:32.178Z,37.29
2023-03-26T15:35:50.187Z,37.87
2023-03-26T15:43:36.334Z,38.43
2023-03-26T15:50:49.921Z,38.72
2023-03-26T15:57:58.321Z,39.69
2023-03-26T16:04:54.946Z,40.59
2023-03-26T16:11:57.206Z,40.88
2023-03-26T16:28:31.048Z,42.17
2023-03-26T16:35:42.157Z,42.47
2023-03-26T16:42:42.997Z,43.24
2023-03-26T16:50:07.753Z,44.35
2023-03-26T16:57:23.619Z,45.49
2023-03-26T17:04:30.332Z,44.77
2023-03-26T17:11:38.931Z,45.60
2023-03-26T17:22:49.132Z,45.65
2023-03-26T17:30:34.314Z,45.52
2023-03-26T17:41:58.346Z,46.76
2023-03-26T17:49:00.137Z,47.18
2023-03-26T17:55:46.670Z,47.10
2023-03-26T18:02:51.769Z,48.30
2023-03-26T18:10:00.041Z,49.34
2023-03-26T18:16:54.839Z,49.50
2023-03-26T18:23:53.181Z,50.12
2023-03-26T18:30:55.500Z,50.89
2023-03-26T18:42:00.646Z,50.92
2023-03-26T18:48:57.650Z,52.78
2023-03-26T18:55:51.190Z,53.62
2023-03-26T19:03:09.493Z,54.10
2023-03-26T19:10:05.730Z,53.16
2023-03-26T19:17:01.177Z,53.91
2023-03-26T19:27:58.338Z,54.39
2023-03-26T19:34:45.966Z,54.31
2023-03-26T19:41:40.933Z,55.18
2023-03-26T19:48:45.745Z,55.68
2023-03-26T19:55:46.229Z,57.04
2023-03-26T20:02:36.113Z,56.78
2023-03-26T20:09:37.728Z,57.42
2023-03-26T20:16:29.623Z,58.35
2023-03-26T20:23:24.273Z,58.64
2023-03-26T20:30:27.440Z,58.45
2023-03-26T20:41:59.263Z,59.58
2023-03-26T20:48:51.947Z,59.19
2023-03-26T20:55:54.936Z,59.59
2023-03-26T21:02:45.113Z,63.52
2023-03-26T21:09:44.989Z,64.60
2023-03-26T21:16:32.517Z,65.00
2023-03-26T21:23:39.148Z,65.60
2023-03-26T21:30:24.695Z,66.30
2023-03-26T21:42:04.257Z,68.59
2023-03-26T21:48:56.410Z,75.04
2023-03-26T21:56:03.400Z,77.90
2023-03-26T22:02:56.488Z,78.88
2023-03-26T22:09:51.358Z,78.89
2023-03-26T22:16:38.582Z,81.05
2023-03-26T22:23:36.546Z,81.15
2023-03-26T22:30:24.777Z,81.50
2023-03-26T22:38:29.685Z,83.06
2023-03-26T22:45:24.905Z,82.62
2023-03-26T22:52:13.099Z,82.46
2023-03-26T22:59:00.442Z,82.28
2023-03-26T23:05:59.700Z,83.28
2023-03-26T23:12:46.322Z,82.85
2023-03-26T23:24:07.395Z,83.65
2023-03-26T23:31:02.325Z,84.89
2023-03-26T23:37:50.963Z,84.69
2023-03-26T23:44:46.503Z,85.09
2023-03-26T23:51:36.180Z,85.26
2023-03-26T23:58:24.837Z,86.00
